Time;durP1;ratioP1;P1;durP2;ratioP2;P2;SDS_P1;SDS_P2;PMS_P1;PMS_P2;Temp;Humidity;BMP_temperature;BMP_pressure;BME280_temperature;BME280_humidity;BME280_pressure;Samples;Min_cycle;Max_cycle;Signal;HPM_P1;HPM_P2
2022/11/15 00:00:51;;;;;;;33.40;19.80;;;6.10;99.90;;;;;;5055937;28;20405;-76
2022/11/15 00:03:18;;;;;;;39.00;20.50;;;6.10;99.90;;;;;;5055572;28;20404;-77
2022/11/15 00:05:44;;;;;;;40.93;19.97;;;6.10;99.90;;;;;;5053732;28;20873;-76
2022/11/15 00:08:10;;;;;;;35.27;19.60;;;6.10;99.90;;;;;;5055331;28;20437;-77
2022/11/15 00:10:36;;;;;;;40.90;21.50;;;6.10;99.90;;;;;;5070844;28;20449;-77
2022/11/15 00:13:12;;;;;;;39.00;21.50;;;6.10;99.90;;;;;;5054631;28;20426;-77
2022/11/15 00:15:42;;;;;;;32.00;18.67;;;6.10;99.90;;;;;;5054371;28;20444;-76
2022/11/15 00:18:14;;;;;;;28.90;19.87;;;6.10;99.90;;;;;;5054542;28;20470;-76
2022/11/15 00:20:40;;;;;;;37.60;20.00;;;6.10;99.90;;;;;;5055218;28;20426;-76
2022/11/15 00:23:06;;;;;;;40.13;20.93;;;6.10;99.90;;;;;;5055433;28;20460;-78
2022/11/15 00:25:32;;;;;;;36.00;19.27;;;6.10;99.90;;;;;;5053770;28;20174;-77
2022/11/15 00:27:59;;;;;;;35.57;20.13;;;6.10;99.90;;;;;;5054966;28;20417;-77
2022/11/15 00:30:25;;;;;;;42.03;22.10;;;6.10;99.90;;;;;;5055585;28;20397;-76
2022/11/15 00:32:51;;;;;;;38.23;22.33;;;6.20;99.90;;;;;;5055302;28;20428;-76
2022/11/15 00:35:21;;;;;;;38.60;21.33;;;6.20;99.90;;;;;;5054298;28;20428;-77
2022/11/15 00:37:47;;;;;;;37.77;21.77;;;6.20;99.90;;;;;;5053910;28;20434;-77
2022/11/15 00:40:13;;;;;;;34.30;20.17;;;6.30;99.90;;;;;;5055635;28;20760;-76
2022/11/15 00:42:40;;;;;;;39.30;22.60;;;6.40;99.90;;;;;;5054898;28;20935;-77
2022/11/15 00:45:06;;;;;;;43.23;22.97;;;6.40;99.90;;;;;;5053995;28;20401;-76
2022/11/15 00:47:32;;;;;;;36.93;22.90;;;6.50;99.90;;;;;;5054542;28;20445;-76
2022/11/15 00:49:58;;;;;;;34.40;20.70;;;6.60;99.90;;;;;;5053831;28;20420;-76
2022/11/15 00:52:23;;;;;;;37.10;21.13;;;6.50;99.90;;;;;;5054430;28;20178;-77
2022/11/15 00:54:49;;;;;;;39.20;22.30;;;6.50;99.90;;;;;;5054159;28;20747;-76
2022/11/15 00:57:15;;;;;;;35.60;22.30;;;6.50;99.90;;;;;;5054613;28;20276;-77
2022/11/15 00:59:40;;;;;;;37.67;22.53;;;6.60;99.90;;;;;;5054730;28;20459;-77
2022/11/15 01:02:06;;;;;;;35.60;21.77;;;6.60;99.90;;;;;;5054292;28;20264;-78
2022/11/15 01:04:32;;;;;;;35.17;21.07;;;6.60;99.90;;;;;;5055485;28;20214;-75
2022/11/15 01:06:58;;;;;;;38.00;20.60;;;6.70;99.90;;;;;;5053643;28;20296;-78
2022/11/15 01:09:23;;;;;;;36.60;18.90;;;6.70;99.90;;;;;;5054666;28;20242;-77
2022/11/15 01:11:49;;;;;;;38.60;20.40;;;6.60;99.90;;;;;;5054206;28;20210;-77
2022/11/15 01:14:15;;;;;;;39.37;22.27;;;6.60;99.90;;;;;;5052335;28;20182;-75
2022/11/15 01:16:41;;;;;;;37.30;20.90;;;6.60;99.90;;;;;;5054066;28;20717;-77
2022/11/15 01:19:06;;;;;;;31.43;20.17;;;6.60;99.90;;;;;;5054488;28;20175;-76
2022/11/15 01:21:32;;;;;;;36.43;19.67;;;6.70;99.90;;;;;;5053567;28;20552;-77
2022/11/15 01:23:58;;;;;;;38.40;22.83;;;6.70;99.90;;;;;;5053300;28;20176;-75
2022/11/15 01:26:25;;;;;;;33.70;21.23;;;6.70;99.90;;;;;;5054227;28;20203;-77
2022/11/15 01:28:51;;;;;;;34.63;21.30;;;6.70;99.90;;;;;;5053069;28;20199;-75
2022/11/15 01:31:20;;;;;;;38.70;21.13;;;6.80;99.90;;;;;;5053985;28;20402;-77
2022/11/15 01:33:47;;;;;;;36.30;20.67;;;6.80;99.90;;;;;;5052053;28;20421;-77
2022/11/15 01:36:22;;;;;;;35.33;20.77;;;6.80;99.90;;;;;;5054006;28;20426;-76
2022/11/15 01:38:55;;;;;;;36.20;21.50;;;6.80;99.90;;;;;;5034358;28;20397;-76
2022/11/15 01:41:27;;;;;;;32.47;20.77;;;6.80;99.90;;;;;;5033728;28;21018;-78
2022/11/15 01:43:55;;;;;;;34.70;22.70;;;6.80;99.90;;;;;;5048498;28;20501;-78
2022/11/15 01:46:29;;;;;;;30.70;20.87;;;6.80;99.90;;;;;;5034046;28;20441;-77
2022/11/15 01:49:11;;;;;;;35.17;21.43;;;6.80;99.90;;;;;;5054164;28;20496;-77
2022/11/15 01:51:37;;;;;;;40.60;22.17;;;6.80;99.90;;;;;;5053551;28;20424;-76
2022/11/15 01:54:11;;;;;;;38.17;20.80;;;6.80;99.90;;;;;;5052860;28;20567;-76
2022/11/15 01:56:45;;;;;;;39.23;23.53;;;6.80;99.90;;;;;;5053573;28;20554;-76
2022/11/15 01:59:12;;;;;;;43.60;22.17;;;6.80;99.90;;;;;;5053232;28;20408;-76
2022/11/15 02:01:38;;;;;;;32.50;20.37;;;6.80;99.90;;;;;;5053063;28;20457;-77
2022/11/15 02:04:17;;;;;;;36.30;21.33;;;6.80;99.90;;;;;;5052327;28;20442;-78
2022/11/15 02:06:46;;;;;;;31.87;19.03;;;6.70;99.90;;;;;;5053329;28;20437;-76
2022/11/15 02:09:12;;;;;;;36.83;19.40;;;6.70;99.90;;;;;;5053567;28;20398;-77
2022/11/15 02:11:38;;;;;;;34.70;20.07;;;6.70;99.90;;;;;;5053274;28;20445;-76
2022/11/15 02:14:05;;;;;;;41.33;21.80;;;6.70;99.90;;;;;;5052704;28;20425;-77
2022/11/15 02:16:44;;;;;;;42.30;21.23;;;6.70;99.90;;;;;;5052671;28;20934;-77
2022/11/15 02:19:47;;;;;;;40.83;21.37;;;6.70;99.90;;;;;;5052776;28;20405;-77
2022/11/15 02:22:31;;;;;;;35.07;22.17;;;6.80;99.90;;;;;;5052744;28;20460;-77
2022/11/15 02:25:12;;;;;;;41.17;22.00;;;6.80;99.90;;;;;;5052240;28;20409;-77
2022/11/15 02:28:15;;;;;;;29.90;18.87;;;6.80;99.90;;;;;;5052204;28;20433;-77
2022/11/15 02:30:59;;;;;;;31.37;21.27;;;6.80;99.90;;;;;;5051873;28;20416;-77
2022/11/15 02:33:52;;;;;;;34.80;20.87;;;6.80;99.90;;;;;;5052788;28;20417;-77
2022/11/15 02:36:41;;;;;;;35.50;21.40;;;6.80;99.90;;;;;;5052864;28;20444;-76
2022/11/15 02:39:27;;;;;;;35.33;21.03;;;6.80;99.90;;;;;;5053401;28;20414;-76
2022/11/15 02:41:56;;;;;;;36.17;20.23;;;6.80;99.90;;;;;;5052775;28;20449;-76
2022/11/15 02:44:36;;;;;;;33.73;19.23;;;6.80;99.90;;;;;;5052125;28;20406;-77
2022/11/15 02:47:13;;;;;;;35.13;19.87;;;6.80;99.90;;;;;;5051810;28;20949;-76
2022/11/15 02:50:01;;;;;;;37.57;22.30;;;6.80;99.90;;;;;;5053078;28;20408;-76
2022/11/15 02:52:27;;;;;;;31.00;19.00;;;6.80;99.90;;;;;;5052696;28;20488;-77
2022/11/15 02:54:57;;;;;;;35.70;23.40;;;6.80;99.90;;;;;;5052144;28;21012;-77
2022/11/15 02:57:49;;;;;;;34.60;21.40;;;6.80;99.90;;;;;;5052900;28;20201;-76
2022/11/15 03:00:20;;;;;;;35.40;21.60;;;6.80;99.90;;;;;;5053038;28;20417;-77
2022/11/15 03:03:08;;;;;;;36.40;21.93;;;6.70;99.90;;;;;;5052567;28;20451;-77
2022/11/15 03:06:10;;;;;;;32.10;19.87;;;6.70;99.90;;;;;;5052013;28;20425;-77
2022/11/15 03:08:48;;;;;;;33.90;19.90;;;6.70;99.90;;;;;;5052280;28;20443;-78
2022/11/15 03:11:17;;;;;;;33.80;20.17;;;6.70;99.90;;;;;;5052935;28;20488;-76
2022/11/15 03:13:57;;;;;;;36.37;20.90;;;6.70;99.90;;;;;;5051725;28;20491;-78
2022/11/15 03:17:01;;;;;;;35.70;19.03;;;6.70;99.90;;;;;;5051750;28;20424;-77
2022/11/15 03:19:45;;;;;;;35.23;20.20;;;6.70;99.90;;;;;;5033012;28;20807;-78
2022/11/15 03:22:15;;;;;;;36.03;19.90;;;6.60;99.90;;;;;;5041114;28;20966;-76
2022/11/15 03:24:43;;;;;;;36.20;20.33;;;6.60;99.90;;;;;;5051753;28;20459;-78
2022/11/15 03:27:13;;;;;;;31.47;19.77;;;6.60;99.90;;;;;;5051980;28;20500;-77
2022/11/15 03:29:47;;;;;;;39.00;21.03;;;6.60;99.90;;;;;;5053416;28;20397;-76
2022/11/15 03:32:18;;;;;;;33.30;18.30;;;6.60;99.90;;;;;;5056208;28;20428;-76
2022/11/15 03:34:56;;;;;;;29.43;19.07;;;6.50;99.90;;;;;;5055533;28;20886;-78
2022/11/15 03:37:30;;;;;;;36.03;21.20;;;6.50;99.90;;;;;;5055888;28;20459;-77
2022/11/15 03:39:55;;;;;;;31.13;20.07;;;6.50;99.90;;;;;;5056560;28;20512;-76
2022/11/15 03:42:34;;;;;;;36.67;21.37;;;6.50;99.90;;;;;;5055532;28;20495;-78
2022/11/15 03:45:11;;;;;;;40.43;19.20;;;6.50;99.90;;;;;;5055251;28;20171;-78
2022/11/15 03:47:46;;;;;;;33.10;20.57;;;6.50;99.90;;;;;;5055773;28;20447;-77
2022/11/15 03:50:23;;;;;;;38.53;20.60;;;6.50;99.90;;;;;;5055985;28;20389;-77
2022/11/15 03:52:49;;;;;;;30.50;19.73;;;6.50;99.90;;;;;;5056087;28;20518;-77
2022/11/15 03:55:18;;;;;;;41.30;20.83;;;6.40;99.90;;;;;;5054784;28;20427;-75
2022/11/15 03:57:44;;;;;;;42.90;21.50;;;6.40;99.90;;;;;;5056132;28;20436;-76
2022/11/15 04:00:11;;;;;;;37.43;21.43;;;6.40;99.90;;;;;;5055284;28;20405;-76
2022/11/15 04:02:37;;;;;;;37.53;20.00;;;6.40;99.90;;;;;;5051422;28;20458;-77
2022/11/15 04:05:03;;;;;;;29.87;18.87;;;6.40;99.90;;;;;;5034966;28;20556;-78
2022/11/15 04:07:29;;;;;;;32.00;18.63;;;6.30;99.90;;;;;;5054478;28;20212;-77
2022/11/15 04:10:05;;;;;;;29.43;18.37;;;6.40;99.90;;;;;;5055957;28;20446;-76
2022/11/15 04:12:33;;;;;;;35.43;20.23;;;6.40;99.90;;;;;;5055415;28;20182;-76
2022/11/15 04:15:09;;;;;;;36.83;20.53;;;6.40;99.90;;;;;;5054727;28;20397;-78
2022/11/15 04:17:38;;;;;;;32.47;20.50;;;6.40;99.90;;;;;;5053510;28;20445;-78
2022/11/15 04:25:37;;;;;;;31.53;20.43;;;6.30;99.90;;;;;;5054389;28;20429;-77
2022/11/15 04:28:03;;;;;;;30.70;20.30;;;6.30;99.90;;;;;;5055578;28;20413;-77
2022/11/15 04:30:29;;;;;;;32.87;19.67;;;6.30;99.90;;;;;;5054099;28;20240;-77
2022/11/15 04:32:54;;;;;;;31.93;19.70;;;6.20;99.90;;;;;;5054125;28;20515;-76
2022/11/15 04:35:20;;;;;;;40.07;20.90;;;6.20;99.90;;;;;;5052234;28;20563;-77
2022/11/15 04:37:46;;;;;;;32.37;19.43;;;6.20;99.90;;;;;;5053428;28;20221;-77
2022/11/15 04:40:14;;;;;;;33.47;20.70;;;6.20;99.90;;;;;;5055147;28;20175;-77
2022/11/15 04:42:43;;;;;;;31.87;19.40;;;6.20;99.90;;;;;;5069517;28;20210;-77
2022/11/15 04:45:09;;;;;;;30.60;19.20;;;6.20;99.90;;;;;;5054119;28;20445;-78
2022/11/15 04:47:35;;;;;;;29.27;19.57;;;6.10;99.90;;;;;;5054764;28;20453;-78
2022/11/15 04:50:01;;;;;;;36.13;19.03;;;6.10;99.90;;;;;;5053642;28;20922;-77
2022/11/15 04:52:27;;;;;;;32.50;18.40;;;6.10;99.90;;;;;;5035827;28;20171;-77
2022/11/15 04:54:53;;;;;;;34.13;20.40;;;6.10;99.90;;;;;;5033683;28;20505;-77
2022/11/15 04:57:19;;;;;;;32.53;18.40;;;6.10;99.90;;;;;;5052936;28;20205;-77
2022/11/15 04:59:44;;;;;;;34.90;21.27;;;6.10;99.90;;;;;;5054893;28;20175;-77
2022/11/15 05:02:10;;;;;;;29.10;19.97;;;6.10;99.90;;;;;;5053121;28;20510;-76
2022/11/15 05:04:36;;;;;;;28.90;17.73;;;6.00;99.90;;;;;;5053788;28;20273;-76
2022/11/15 05:07:04;;;;;;;28.60;18.50;;;6.00;99.90;;;;;;5054374;28;20198;-77
2022/11/15 05:09:29;;;;;;;40.77;20.77;;;6.00;99.90;;;;;;5054668;28;20166;-77
2022/11/15 05:11:55;;;;;;;31.67;19.37;;;6.00;99.90;;;;;;5054254;28;20983;-77
2022/11/15 05:14:21;;;;;;;36.47;20.27;;;6.00;99.90;;;;;;5053387;28;20175;-76
2022/11/15 05:16:47;;;;;;;33.00;19.60;;;5.90;99.90;;;;;;5054255;28;20191;-75
2022/11/15 05:19:12;;;;;;;31.60;18.40;;;5.90;99.90;;;;;;5053140;28;20436;-76
2022/11/15 05:21:41;;;;;;;32.27;18.33;;;6.00;99.90;;;;;;5053957;28;20202;-78
2022/11/15 05:24:10;;;;;;;31.43;18.47;;;6.00;99.90;;;;;;5053217;28;20182;-76
2022/11/15 05:26:35;;;;;;;32.33;19.77;;;6.00;99.90;;;;;;5054242;28;20806;-76
2022/11/15 05:29:02;;;;;;;30.03;19.50;;;6.00;99.90;;;;;;5054293;28;20398;-75
2022/11/15 05:31:27;;;;;;;29.70;18.90;;;6.00;99.90;;;;;;5053631;28;20186;-76
2022/11/15 05:33:55;;;;;;;30.10;18.47;;;6.00;99.90;;;;;;5053204;28;20401;-78
2022/11/15 05:36:36;;;;;;;33.17;20.03;;;6.00;99.90;;;;;;5053928;28;20441;-77
2022/11/15 05:39:03;;;;;;;28.20;19.80;;;6.00;99.90;;;;;;5054386;28;20412;-76
2022/11/15 05:41:41;;;;;;;29.17;19.17;;;6.10;99.90;;;;;;5053812;28;20475;-77
2022/11/15 05:44:09;;;;;;;30.50;17.73;;;6.20;1.00;;;;;;5053166;28;20495;-78
2022/11/15 05:46:41;;;;;;;29.53;18.00;;;6.30;1.00;;;;;;5053581;28;20926;-75
2022/11/15 05:49:12;;;;;;;29.73;19.63;;;6.40;1.00;;;;;;5053935;28;20405;-77
2022/11/15 05:51:39;;;;;;;33.23;20.80;;;6.50;1.00;;;;;;5053212;28;20432;-77
2022/11/15 05:54:04;;;;;;;28.60;18.90;;;6.60;1.00;;;;;;5052932;28;20448;-76
2022/11/15 05:56:30;;;;;;;26.90;16.70;;;6.60;1.00;;;;;;5053470;28;20445;-77
2022/11/15 05:58:58;;;;;;;31.10;18.20;;;6.70;1.00;;;;;;5053973;28;20183;-77
2022/11/15 06:01:25;;;;;;;32.97;19.80;;;6.80;1.00;;;;;;5053495;28;20503;-76
2022/11/15 06:03:51;;;;;;;29.93;19.40;;;6.80;1.00;;;;;;5052675;28;20426;-77
2022/11/15 06:06:20;;;;;;;26.83;17.50;;;6.90;1.00;;;;;;5053020;28;20452;-77
2022/11/15 06:08:47;;;;;;;29.30;18.83;;;7.00;1.00;;;;;;5052939;28;20637;-76
2022/11/15 06:11:13;;;;;;;32.00;19.17;;;7.00;1.00;;;;;;5053541;28;20910;-76
2022/11/15 06:13:39;;;;;;;34.23;19.60;;;7.00;1.00;;;;;;5052420;28;20441;-78
2022/11/15 06:16:05;;;;;;;30.87;18.70;;;7.00;1.00;;;;;;5053261;28;20414;-77
2022/11/15 06:18:35;;;;;;;29.43;18.67;;;7.00;1.00;;;;;;5053129;28;20301;-76
2022/11/15 06:21:01;;;;;;;29.57;18.70;;;7.00;1.00;;;;;;5052119;28;20470;-77
2022/11/15 06:23:31;;;;;;;29.70;18.00;;;7.00;1.00;;;;;;5052868;28;20436;-78
2022/11/15 06:25:58;;;;;;;31.37;18.97;;;7.00;1.00;;;;;;5052635;28;20417;-77
2022/11/15 06:28:24;;;;;;;33.07;17.30;;;7.10;1.00;;;;;;5052538;28;20394;-77
2022/11/15 06:30:49;;;;;;;40.27;20.27;;;7.10;1.00;;;;;;5069032;28;20452;-75
2022/11/15 06:33:15;;;;;;;34.13;19.20;;;7.20;1.00;;;;;;5051767;28;20580;-78
2022/11/15 06:35:41;;;;;;;36.87;21.83;;;7.20;1.00;;;;;;5052185;28;20214;-77
2022/11/15 06:38:09;;;;;;;30.37;19.30;;;7.20;1.00;;;;;;5053181;28;20228;-78
2022/11/15 06:40:36;;;;;;;29.73;18.57;;;7.20;1.00;;;;;;5068553;28;20183;-76
2022/11/15 06:43:04;;;;;;;33.80;19.10;;;7.30;1.00;;;;;;5053169;28;20508;-75
2022/11/15 06:45:30;;;;;;;28.90;18.60;;;7.30;1.00;;;;;;5051856;28;20424;-73
2022/11/15 06:47:56;;;;;;;29.77;18.33;;;7.20;1.00;;;;;;5052966;28;20971;-76
2022/11/15 06:50:23;;;;;;;35.97;18.70;;;7.20;1.00;;;;;;5051742;28;20405;-77
2022/11/15 06:52:48;;;;;;;29.83;18.97;;;7.10;1.00;;;;;;5051854;28;20508;-73
2022/11/15 06:55:14;;;;;;;32.60;19.47;;;7.20;1.00;;;;;;5051253;28;20434;-75
2022/11/15 06:57:50;;;;;;;29.27;17.20;;;7.20;99.90;;;;;;5053018;28;20191;-76
2022/11/15 07:00:18;;;;;;;29.93;20.10;;;7.20;99.90;;;;;;5053151;28;20167;-76
2022/11/15 07:02:43;;;;;;;34.10;19.97;;;7.20;1.00;;;;;;5052931;28;20965;-75
2022/11/15 07:05:10;;;;;;;32.07;19.03;;;7.20;1.00;;;;;;5051896;28;20436;-77
2022/11/15 07:07:35;;;;;;;29.70;18.40;;;7.20;1.00;;;;;;5056905;28;20500;-77
2022/11/15 07:10:01;;;;;;;30.00;18.80;;;7.20;99.90;;;;;;5055946;28;20405;-76
2022/11/15 07:12:27;;;;;;;32.10;18.97;;;7.20;1.00;;;;;;5056912;28;20167;-76
2022/11/15 07:14:52;;;;;;;26.37;17.90;;;7.10;99.90;;;;;;5055940;28;20207;-75
2022/11/15 07:17:18;;;;;;;32.77;19.30;;;7.20;99.90;;;;;;5057011;28;20187;-75
2022/11/15 07:19:44;;;;;;;31.73;18.03;;;7.20;1.00;;;;;;5056671;28;20178;-77
2022/11/15 07:22:09;;;;;;;30.73;17.37;;;7.20;1.00;;;;;;5056599;28;20198;-76
2022/11/15 07:24:35;;;;;;;30.00;19.40;;;7.30;1.00;;;;;;5055278;28;20163;-78
2022/11/15 07:27:01;;;;;;;31.17;17.43;;;7.30;1.00;;;;;;5056485;28;20566;-75
2022/11/15 07:29:27;;;;;;;30.60;19.20;;;7.40;1.00;;;;;;5056727;28;20168;-76
2022/11/15 07:31:52;;;;;;;25.83;16.80;;;7.40;1.00;;;;;;5056355;28;20187;-75
2022/11/15 07:34:18;;;;;;;28.63;17.93;;;7.40;1.00;;;;;;5055668;28;20178;-77
2022/11/15 07:36:44;;;;;;;28.73;17.83;;;7.50;1.00;;;;;;5056474;28;20182;-78
2022/11/15 07:39:11;;;;;;;32.40;18.50;;;7.50;1.00;;;;;;5056209;28;20171;-75
2022/11/15 07:41:38;;;;;;;28.70;17.13;;;7.50;1.00;;;;;;5054526;28;20204;-78
2022/11/15 07:44:04;;;;;;;29.30;18.33;;;7.50;1.00;;;;;;5055411;28;20492;-76
2022/11/15 07:46:31;;;;;;;32.00;18.07;;;7.50;1.00;;;;;;5056085;28;20560;-77
2022/11/15 07:48:57;;;;;;;25.30;18.00;;;7.50;1.00;;;;;;5056304;28;20401;-76
2022/11/15 07:51:23;;;;;;;29.27;16.47;;;7.60;1.00;;;;;;5055091;28;20397;-75
2022/11/15 07:53:48;;;;;;;27.07;19.37;;;7.60;1.00;;;;;;5054807;28;20168;-78
2022/11/15 07:56:17;;;;;;;29.13;18.00;;;7.60;1.00;;;;;;5056158;28;20750;-78
2022/11/15 07:58:45;;;;;;;27.43;18.33;;;7.70;1.00;;;;;;5055550;28;20203;-78
2022/11/15 08:01:10;;;;;;;30.00;16.90;;;7.70;1.00;;;;;;5055930;28;20406;-78
2022/11/15 08:03:40;;;;;;;28.50;16.70;;;7.70;1.00;;;;;;5055494;28;20498;-82
2022/11/15 08:06:05;;;;;;;25.70;17.50;;;7.70;1.00;;;;;;5055987;28;20253;-75
2022/11/15 08:08:31;;;;;;;28.03;16.77;;;7.70;1.00;;;;;;5055621;28;20765;-75
2022/11/15 08:11:00;;;;;;;26.40;17.50;;;7.70;1.00;;;;;;5055774;28;20216;-78
2022/11/15 08:13:26;;;;;;;25.20;15.93;;;7.80;1.00;;;;;;5055530;28;20168;-80
2022/11/15 08:15:51;;;;;;;29.00;17.10;;;7.80;1.00;;;;;;5053778;28;20418;-77
2022/11/15 08:18:17;;;;;;;23.20;16.80;;;7.90;1.00;;;;;;5055088;28;20250;-77
2022/11/15 08:20:44;;;;;;;28.40;16.47;;;7.90;1.00;;;;;;5055543;28;20197;-77
2022/11/15 08:23:11;;;;;;;27.50;16.07;;;7.90;1.00;;;;;;5055445;28;20977;-76
2022/11/15 08:25:38;;;;;;;28.67;15.53;;;7.90;1.00;;;;;;5054849;28;20419;-77
2022/11/15 08:28:06;;;;;;;29.37;15.70;;;7.90;1.00;;;;;;5055464;28;20907;-77
2022/11/15 08:30:37;;;;;;;26.27;16.30;;;7.90;1.00;;;;;;5055469;28;20409;-77
2022/11/15 08:33:03;;;;;;;23.27;14.07;;;7.90;1.00;;;;;;5054811;28;20790;-76
2022/11/15 08:35:29;;;;;;;24.67;16.30;;;8.00;1.00;;;;;;5055148;28;20430;-75
2022/11/15 08:37:55;;;;;;;28.03;15.23;;;8.00;1.00;;;;;;5055246;28;20809;-75
2022/11/15 08:40:20;;;;;;;26.10;16.80;;;8.10;1.00;;;;;;5055207;28;20248;-76
2022/11/15 08:42:47;;;;;;;24.27;14.77;;;8.10;1.00;;;;;;5055178;28;20192;-77
2022/11/15 08:45:13;;;;;;;21.40;15.03;;;8.20;1.00;;;;;;5054510;28;20403;-76
2022/11/15 08:47:39;;;;;;;28.87;16.43;;;8.20;1.00;;;;;;5054941;28;20445;-75
2022/11/15 08:50:05;;;;;;;21.57;16.03;;;8.20;1.00;;;;;;5054831;28;20400;-75
2022/11/15 08:52:31;;;;;;;24.03;16.43;;;8.30;1.00;;;;;;5054720;28;20171;-76
2022/11/15 08:54:57;;;;;;;32.40;15.00;;;8.30;1.00;;;;;;5054257;28;20798;-75
2022/11/15 08:57:23;;;;;;;21.07;15.17;;;8.30;1.00;;;;;;5054944;28;20182;-77
2022/11/15 08:59:49;;;;;;;22.43;13.73;;;8.40;1.00;;;;;;5054984;28;20420;-77
2022/11/15 09:02:15;;;;;;;23.80;15.07;;;8.40;1.00;;;;;;5054839;28;20451;-77
2022/11/15 09:04:42;;;;;;;21.10;14.03;;;8.50;1.00;;;;;;5053859;28;20223;-77
2022/11/15 09:07:09;;;;;;;22.40;14.63;;;8.50;1.00;;;;;;5054599;28;20492;-76
2022/11/15 09:09:34;;;;;;;19.40;13.80;;;8.50;99.90;;;;;;5054719;28;20762;-79
2022/11/15 09:12:00;;;;;;;23.00;15.43;;;8.50;99.90;;;;;;5054258;28;20401;-77
2022/11/15 09:14:26;;;;;;;21.17;13.87;;;8.50;99.90;;;;;;5053822;28;20173;-76
2022/11/15 09:16:55;;;;;;;24.97;15.07;;;8.50;99.90;;;;;;5054648;28;20246;-75
2022/11/15 09:19:20;;;;;;;25.80;15.70;;;8.50;99.90;;;;;;5053290;28;20262;-77
2022/11/15 09:21:46;;;;;;;24.17;15.17;;;8.60;99.90;;;;;;5054339;28;20872;-77
2022/11/15 09:24:12;;;;;;;23.63;15.47;;;8.70;99.90;;;;;;5053586;28;20216;-76
2022/11/15 09:26:38;;;;;;;24.47;15.67;;;8.70;99.90;;;;;;5054341;28;20177;-75
2022/11/15 09:29:04;;;;;;;21.40;13.50;;;8.80;99.90;;;;;;5053865;28;20176;-78
2022/11/15 09:31:30;;;;;;;20.67;14.27;;;8.80;99.90;;;;;;5053986;28;20812;-78
2022/11/15 09:33:56;;;;;;;24.60;15.70;;;8.80;99.90;;;;;;5053241;28;20409;-75
2022/11/15 09:36:21;;;;;;;22.00;15.50;;;8.80;99.90;;;;;;5054356;28;20520;-76
2022/11/15 09:38:47;;;;;;;21.83;14.83;;;8.90;99.90;;;;;;5054093;28;20178;-76
2022/11/15 09:41:13;;;;;;;22.23;15.00;;;8.80;99.90;;;;;;5054035;28;20217;-76
2022/11/15 09:44:17;;;;;;;21.40;14.50;;;8.80;99.90;;;;;;5051739;28;20178;-77
2022/11/15 09:47:02;;;;;;;19.70;15.33;;;8.90;99.90;;;;;;5053933;28;20196;-76
2022/11/15 09:49:30;;;;;;;21.20;14.73;;;8.90;99.90;;;;;;5053646;28;20507;-77
2022/11/15 09:51:57;;;;;;;24.10;14.37;;;8.90;99.90;;;;;;5053878;28;20489;-77
2022/11/15 09:54:43;;;;;;;26.37;16.60;;;8.90;99.90;;;;;;5053249;28;20401;-77
2022/11/15 09:57:12;;;;;;;22.23;14.47;;;8.90;99.90;;;;;;5053850;28;20515;-75
2022/11/15 09:59:49;;;;;;;21.13;14.80;;;8.90;99.90;;;;;;5053938;28;20432;-76
2022/11/15 10:02:42;;;;;;;19.20;13.30;;;9.00;99.90;;;;;;5053748;28;20844;-75
2022/11/15 10:05:12;;;;;;;18.77;14.37;;;9.00;99.90;;;;;;5052803;28;20424;-77
2022/11/15 10:07:58;;;;;;;18.87;14.50;;;9.00;99.90;;;;;;5053402;28;20413;-75
2022/11/15 10:10:36;;;;;;;20.60;15.50;;;9.00;99.90;;;;;;5053703;28;20416;-76
2022/11/15 10:13:02;;;;;;;21.13;14.93;;;9.10;99.90;;;;;;5053617;28;20924;-77
2022/11/15 10:15:28;;;;;;;20.97;15.37;;;9.10;99.90;;;;;;5052690;28;20433;-76
2022/11/15 10:18:07;;;;;;;20.37;13.83;;;9.20;99.90;;;;;;5053513;28;20890;-76
2022/11/15 10:20:49;;;;;;;20.93;15.67;;;9.20;99.90;;;;;;5068746;28;20225;-76
2022/11/15 10:23:21;;;;;;;25.90;15.30;;;9.20;99.90;;;;;;5053002;28;20486;-76
2022/11/15 10:25:50;;;;;;;21.63;14.67;;;9.20;99.90;;;;;;5052630;28;20426;-76
2022/11/15 10:28:22;;;;;;;19.63;13.73;;;9.30;99.90;;;;;;5053259;28;21144;-76
2022/11/15 10:30:56;;;;;;;21.83;13.17;;;9.30;99.90;;;;;;5053126;28;20387;-76
2022/11/15 10:33:35;;;;;;;20.30;14.40;;;9.20;99.90;;;;;;5052999;28;20416;-76
2022/11/15 10:36:09;;;;;;;21.70;15.17;;;9.30;99.90;;;;;;5052609;28;20415;-77
2022/11/15 10:38:50;;;;;;;18.53;15.00;;;9.40;99.90;;;;;;5051354;28;20743;-76
2022/11/15 10:41:31;;;;;;;21.57;14.40;;;9.40;99.90;;;;;;5052765;28;20405;-76
2022/11/15 10:44:20;;;;;;;22.87;14.37;;;9.50;99.90;;;;;;5052437;28;20894;-76
2022/11/15 10:46:56;;;;;;;22.70;15.30;;;9.50;99.90;;;;;;5053229;28;20399;-76
2022/11/15 10:49:25;;;;;;;20.03;12.90;;;9.50;99.90;;;;;;5053256;28;20994;-76
2022/11/15 10:52:25;;;;;;;17.83;12.50;;;9.60;99.90;;;;;;5053074;28;20914;-77
2022/11/15 10:55:05;;;;;;;17.37;12.80;;;9.50;99.90;;;;;;5043378;28;20413;-78
2022/11/15 10:57:36;;;;;;;19.63;13.47;;;9.50;99.90;;;;;;5052807;28;20406;-76
2022/11/15 11:00:32;;;;;;;22.03;14.70;;;9.60;99.90;;;;;;5053197;28;20383;-76
2022/11/15 11:03:06;;;;;;;19.17;12.67;;;9.60;99.90;;;;;;5051006;28;20497;-76
2022/11/15 11:05:37;;;;;;;19.33;13.43;;;9.60;99.90;;;;;;5052017;28;20757;-76
2022/11/15 11:08:14;;;;;;;21.07;12.63;;;9.60;99.90;;;;;;5053097;28;20558;-76
2022/11/15 11:10:53;;;;;;;16.53;12.77;;;9.60;99.90;;;;;;5052976;28;20409;-77
2022/11/15 11:13:31;;;;;;;20.37;13.60;;;9.60;99.90;;;;;;5052366;28;20412;-82
2022/11/15 11:16:20;;;;;;;18.93;13.87;;;9.70;99.90;;;;;;5052335;28;20475;-76
2022/11/15 11:19:15;;;;;;;19.00;12.80;;;9.70;99.90;;;;;;5052880;28;20438;-77
2022/11/15 11:21:43;;;;;;;16.20;12.00;;;9.70;99.90;;;;;;5052856;28;20487;-75
2022/11/15 11:24:25;;;;;;;28.50;14.47;;;9.60;99.90;;;;;;5050662;28;20759;-77
2022/11/15 11:27:17;;;;;;;18.50;13.57;;;9.60;99.90;;;;;;5052700;28;20440;-76
2022/11/15 11:30:01;;;;;;;16.33;12.57;;;9.70;99.90;;;;;;5052591;28;20428;-76
2022/11/15 11:32:46;;;;;;;19.47;14.00;;;9.60;99.90;;;;;;5052734;28;20402;-77
2022/11/15 11:35:14;;;;;;;18.70;12.80;;;9.70;99.90;;;;;;5050696;28;20412;-77
2022/11/15 11:37:53;;;;;;;24.40;13.33;;;9.70;99.90;;;;;;5052642;28;20415;-76
2022/11/15 11:40:30;;;;;;;21.27;14.53;;;9.70;99.90;;;;;;5052749;28;20386;-77
2022/11/15 11:43:27;;;;;;;23.10;14.20;;;9.70;99.90;;;;;;5052508;28;20449;-76
2022/11/15 11:46:13;;;;;;;18.20;13.30;;;9.70;99.90;;;;;;5048479;28;20471;-77
2022/11/15 11:49:04;;;;;;;18.27;13.40;;;9.70;99.90;;;;;;5052445;28;20459;-77
2022/11/15 11:52:21;;;;;;;19.10;13.10;;;9.70;99.90;;;;;;5054726;28;20437;-76
2022/11/15 11:55:15;;;;;;;16.37;12.33;;;9.70;99.90;;;;;;5051785;28;20435;-77
2022/11/15 11:57:47;;;;;;;17.17;12.60;;;9.70;99.90;;;;;;5055864;28;20483;-76
2022/11/15 12:00:20;;;;;;;19.63;13.03;;;9.70;99.90;;;;;;5056236;28;20382;-76
2022/11/15 12:02:55;;;;;;;24.50;13.53;;;9.80;99.90;;;;;;5055425;28;20916;-77
2022/11/15 12:05:30;;;;;;;17.23;13.30;;;9.80;99.90;;;;;;5054853;28;20395;-77
2022/11/15 12:08:04;;;;;;;17.90;13.53;;;9.80;99.90;;;;;;5056041;28;20417;-76
2022/11/15 12:10:35;;;;;;;20.03;14.47;;;9.80;99.90;;;;;;5055858;28;20456;-77
2022/11/15 12:13:34;;;;;;;16.90;11.73;;;9.80;99.90;;;;;;5055743;28;20405;-77
2022/11/15 12:16:21;;;;;;;20.03;12.47;;;9.80;99.90;;;;;;5047540;28;20419;-77
2022/11/15 12:18:55;;;;;;;19.73;13.90;;;9.90;99.90;;;;;;5055508;28;20408;-78
2022/11/15 12:22:00;;;;;;;18.13;13.60;;;9.90;99.90;;;;;;5054014;28;21257;-76
2022/11/15 12:24:44;;;;;;;26.93;14.70;;;10.00;99.90;;;;;;5054233;28;20888;-76
2022/11/15 12:27:32;;;;;;;20.30;13.37;;;10.00;99.90;;;;;;5055406;28;20486;-78
2022/11/15 12:30:03;;;;;;;17.77;13.40;;;10.00;99.90;;;;;;5055347;28;20398;-76
2022/11/15 12:32:37;;;;;;;16.73;12.43;;;10.00;99.90;;;;;;5055345;28;20401;-77
2022/11/15 12:35:06;;;;;;;17.43;13.50;;;9.90;99.90;;;;;;5054446;28;20751;-76
2022/11/15 12:37:37;;;;;;;27.50;13.53;;;10.00;99.90;;;;;;5054770;28;20388;-77
2022/11/15 12:40:09;;;;;;;27.77;14.77;;;10.10;99.90;;;;;;5054826;28;20383;-77
2022/11/15 12:42:41;;;;;;;19.97;12.70;;;10.10;99.90;;;;;;5055176;28;20465;-76
2022/11/15 12:45:28;;;;;;;17.63;13.83;;;10.10;99.90;;;;;;5053681;28;20451;-77
2022/11/15 12:48:11;;;;;;;24.90;15.03;;;10.10;99.90;;;;;;5055293;28;20364;-76
2022/11/15 12:50:58;;;;;;;17.90;12.20;;;10.20;99.90;;;;;;5054755;28;20763;-76
2022/11/15 12:53:27;;;;;;;27.97;13.83;;;10.20;99.90;;;;;;5054630;28;20433;-77
2022/11/15 12:56:16;;;;;;;20.60;12.63;;;10.20;99.90;;;;;;5053243;28;20989;-77
2022/11/15 12:58:54;;;;;;;19.03;12.57;;;10.30;99.90;;;;;;5054840;28;20397;-79
2022/11/15 13:01:32;;;;;;;19.33;12.10;;;10.30;99.90;;;;;;5034910;28;20402;-77
2022/11/15 13:04:18;;;;;;;15.13;12.50;;;10.30;99.90;;;;;;5034760;28;20479;-77
2022/11/15 13:06:50;;;;;;;14.87;12.40;;;10.40;99.90;;;;;;5054820;28;20417;-77